Time;durP1;ratioP1;P1;durP2;ratioP2;P2;SDS_P1;SDS_P2;PMS_P1;PMS_P2;Temp;Humidity;BMP_temperature;BMP_pressure;BME280_temperature;BME280_humidity;BME280_pressure;Samples;Min_cycle;Max_cycle;Signal;HPM_P1;HPM_P2
2022/10/14 00:00:22;;;;;;;15.70;8.82;;;11.70;94.20;;;;;;4960512;28;20106;-76
2022/10/14 00:02:48;;;;;;;15.98;7.80;;;11.70;94.20;;;;;;4969472;28;20057;-75
2022/10/14 00:05:14;;;;;;;14.50;8.77;;;11.70;94.30;;;;;;4974230;28;20045;-67
2022/10/14 00:07:40;;;;;;;14.38;8.48;;;11.60;94.30;;;;;;4968321;28;20031;-67
2022/10/14 00:10:06;;;;;;;12.82;8.07;;;11.60;94.30;;;;;;4967147;28;20062;-68
2022/10/14 00:12:32;;;;;;;11.68;8.05;;;11.60;94.30;;;;;;4974801;28;20066;-67
2022/10/14 00:14:58;;;;;;;15.00;8.23;;;11.60;94.30;;;;;;4968611;28;20031;-67
2022/10/14 00:17:25;;;;;;;12.38;7.93;;;11.50;94.30;;;;;;4974280;28;20026;-68
2022/10/14 00:19:51;;;;;;;15.70;8.38;;;11.50;94.30;;;;;;4973491;28;20068;-67
2022/10/14 00:22:17;;;;;;;14.75;9.10;;;11.50;94.40;;;;;;4972046;28;20118;-68
2022/10/14 00:24:43;;;;;;;11.20;7.53;;;11.50;94.40;;;;;;4967524;28;20502;-67
2022/10/14 00:27:08;;;;;;;15.52;8.48;;;11.50;94.50;;;;;;4971601;28;20114;-67
2022/10/14 00:29:34;;;;;;;12.60;8.05;;;11.40;94.60;;;;;;4968007;28;20038;-67
2022/10/14 00:32:00;;;;;;;14.57;8.68;;;11.40;94.80;;;;;;4972196;28;20030;-67
2022/10/14 00:34:26;;;;;;;13.25;7.90;;;11.40;95.30;;;;;;4972700;28;20058;-67
2022/10/14 00:36:54;;;;;;;13.13;7.80;;;11.40;95.20;;;;;;4980189;28;20066;-67
2022/10/14 00:39:20;;;;;;;14.88;8.98;;;11.40;95.30;;;;;;4971582;28;20435;-67
2022/10/14 00:41:46;;;;;;;14.02;8.80;;;11.50;95.30;;;;;;4975336;28;20053;-67
2022/10/14 00:44:12;;;;;;;13.88;8.30;;;11.50;95.40;;;;;;4968289;28;20373;-67
2022/10/14 00:46:43;;;;;;;11.82;7.82;;;11.50;95.40;;;;;;4967882;28;20041;-67
2022/10/14 00:49:26;;;;;;;12.00;7.72;;;11.50;95.40;;;;;;4972688;28;20495;-67
2022/10/14 00:51:57;;;;;;;17.02;8.77;;;11.50;95.40;;;;;;4969532;28;20043;-68
2022/10/14 00:54:28;;;;;;;15.70;8.57;;;11.50;95.50;;;;;;4970804;28;20486;-67
2022/10/14 00:56:56;;;;;;;12.80;8.10;;;11.50;95.40;;;;;;4971201;28;20030;-67
2022/10/14 00:59:22;;;;;;;13.23;8.05;;;11.50;95.50;;;;;;4962246;28;20495;-67
2022/10/14 01:01:48;;;;;;;12.50;7.85;;;11.50;95.60;;;;;;4952930;28;20177;-67
2022/10/14 01:04:15;;;;;;;15.13;8.23;;;11.60;95.60;;;;;;4961503;28;20702;-68
2022/10/14 01:06:43;;;;;;;16.50;8.38;;;11.60;95.70;;;;;;4965896;28;20038;-67
2022/10/14 01:09:27;;;;;;;15.50;8.88;;;11.60;95.60;;;;;;4972229;28;20407;-67
2022/10/14 01:12:15;;;;;;;12.00;6.80;;;11.70;95.60;;;;;;4969671;28;20062;-67
2022/10/14 01:15:04;;;;;;;19.30;8.68;;;11.70;95.60;;;;;;4965527;28;20037;-67
2022/10/14 01:18:08;;;;;;;11.93;7.50;;;11.70;95.50;;;;;;4952844;28;20110;-67
2022/10/14 01:20:45;;;;;;;15.75;8.10;;;11.70;95.40;;;;;;4954122;28;20027;-67
2022/10/14 01:23:22;;;;;;;13.90;7.25;;;11.60;95.20;;;;;;4967796;28;20050;-67
2022/10/14 01:26:10;;;;;;;12.25;7.10;;;11.60;94.90;;;;;;4957157;28;20081;-68
2022/10/14 01:29:34;;;;;;;9.07;6.63;;;11.60;94.50;;;;;;4965702;28;20043;-68
2022/10/14 01:32:11;;;;;;;9.82;7.18;;;11.50;94.50;;;;;;4894327;29;20138;-67
2022/10/14 01:34:48;;;;;;;10.15;5.90;;;11.40;94.40;;;;;;4968032;28;20027;-75
2022/10/14 01:37:18;;;;;;;9.40;7.22;;;11.30;94.00;;;;;;4970655;28;20026;-78
2022/10/14 01:39:51;;;;;;;10.20;6.72;;;11.30;93.60;;;;;;4968369;28;20040;-75
2022/10/14 01:42:24;;;;;;;11.55;6.85;;;11.20;93.40;;;;;;4960862;28;20414;-76
2022/10/14 01:44:58;;;;;;;9.18;6.90;;;11.10;93.50;;;;;;4954532;28;20037;-74
2022/10/14 01:47:28;;;;;;;10.30;6.60;;;11.10;93.60;;;;;;4972852;28;20042;-75
2022/10/14 01:50:01;;;;;;;14.70;7.70;;;11.00;93.60;;;;;;4954990;28;20081;-75
2022/10/14 01:52:33;;;;;;;11.60;7.00;;;10.90;93.50;;;;;;4967710;28;20113;-75
2022/10/14 01:55:03;;;;;;;11.48;6.45;;;10.90;93.80;;;;;;4975079;28;20031;-75
2022/10/14 01:57:33;;;;;;;10.23;7.15;;;10.90;94.00;;;;;;4948193;28;20467;-69
2022/10/14 02:00:01;;;;;;;15.43;8.63;;;10.90;94.20;;;;;;4968103;28;20050;-70
2022/10/14 02:02:26;;;;;;;11.60;7.10;;;10.90;94.30;;;;;;4962284;28;20030;-69
2022/10/14 02:04:52;;;;;;;18.27;9.50;;;10.90;94.40;;;;;;4966373;28;20782;-69
2022/10/14 02:07:20;;;;;;;12.75;7.50;;;10.90;94.50;;;;;;4921803;28;20044;-69
2022/10/14 02:10:06;;;;;;;20.65;8.48;;;10.90;94.70;;;;;;4917603;29;20827;-78
2022/10/14 02:12:53;;;;;;;12.48;8.40;;;10.90;94.90;;;;;;4921732;29;20672;-77
2022/10/14 02:15:44;;;;;;;13.48;8.23;;;11.00;95.10;;;;;;4924217;29;20066;-70
2022/10/14 02:18:31;;;;;;;12.38;8.10;;;11.00;95.30;;;;;;4930997;29;20036;-78
2022/10/14 02:21:06;;;;;;;15.90;8.05;;;11.00;95.50;;;;;;4911383;29;20540;-77
2022/10/14 02:23:38;;;;;;;15.15;8.30;;;11.10;95.70;;;;;;4920984;29;20071;-78
2022/10/14 02:26:05;;;;;;;14.88;8.57;;;11.20;95.80;;;;;;4919297;29;20046;-77
2022/10/14 02:28:33;;;;;;;15.82;8.35;;;11.30;95.90;;;;;;4908996;29;20079;-69
2022/10/14 02:31:07;;;;;;;10.55;7.25;;;11.30;95.90;;;;;;4916673;29;20062;-71
2022/10/14 02:33:39;;;;;;;11.32;6.72;;;11.40;95.90;;;;;;4915048;29;20032;-70
2022/10/14 02:36:10;;;;;;;16.40;7.82;;;11.40;95.60;;;;;;4928768;28;20040;-69
2022/10/14 02:38:38;;;;;;;13.20;7.65;;;11.40;95.20;;;;;;4918686;29;20188;-69
2022/10/14 02:41:07;;;;;;;11.13;7.32;;;11.40;94.90;;;;;;4916812;29;20111;-73
2022/10/14 02:43:34;;;;;;;11.75;6.82;;;11.40;94.60;;;;;;4926932;29;20694;-77
2022/10/14 02:46:05;;;;;;;12.18;6.82;;;11.30;94.50;;;;;;4914207;29;20036;-77
2022/10/14 02:48:31;;;;;;;12.02;7.43;;;11.30;93.90;;;;;;4911867;29;20028;-77
2022/10/14 02:50:57;;;;;;;10.38;7.20;;;11.20;93.70;;;;;;4914409;29;20039;-76
2022/10/14 02:53:23;;;;;;;10.85;7.07;;;11.20;93.00;;;;;;4916176;29;20083;-72
2022/10/14 02:55:49;;;;;;;15.32;6.72;;;11.10;92.70;;;;;;4920853;29;20023;-67
2022/10/14 02:58:15;;;;;;;12.80;7.65;;;11.00;92.80;;;;;;4920205;29;20477;-77
2022/10/14 03:00:41;;;;;;;11.27;7.50;;;11.00;93.50;;;;;;4914797;29;20127;-78
2022/10/14 03:03:07;;;;;;;13.40;7.18;;;10.90;94.00;;;;;;4919099;29;20842;-77
2022/10/14 03:05:33;;;;;;;12.68;7.88;;;10.90;94.30;;;;;;4921074;29;20035;-77
2022/10/14 03:08:00;;;;;;;13.43;8.02;;;10.90;94.60;;;;;;4930502;28;20563;-77
2022/10/14 03:10:28;;;;;;;12.98;7.63;;;11.00;94.60;;;;;;4916368;29;20423;-76
2022/10/14 03:12:54;;;;;;;11.80;6.55;;;11.00;94.50;;;;;;4911273;29;20067;-77
2022/10/14 03:15:26;;;;;;;13.07;7.75;;;11.00;94.50;;;;;;4917961;29;20019;-77
2022/10/14 03:17:53;;;;;;;10.98;6.82;;;11.10;94.60;;;;;;4916564;29;20028;-77
2022/10/14 03:20:23;;;;;;;11.60;7.40;;;11.10;94.60;;;;;;4920015;29;20032;-77
2022/10/14 03:22:53;;;;;;;15.10;7.57;;;11.10;94.70;;;;;;4919830;29;20035;-76
2022/10/14 03:25:19;;;;;;;12.25;7.47;;;11.10;94.90;;;;;;4909584;29;20127;-78
2022/10/14 03:28:03;;;;;;;13.95;8.27;;;11.20;95.00;;;;;;4908381;29;20051;-77
2022/10/14 03:30:55;;;;;;;13.57;8.15;;;11.20;95.00;;;;;;4909619;29;20048;-78
2022/10/14 03:33:49;;;;;;;12.13;7.78;;;11.20;94.90;;;;;;4917773;29;20075;-77
2022/10/14 03:36:17;;;;;;;11.40;7.97;;;11.20;94.80;;;;;;4919567;29;20138;-77
2022/10/14 03:38:51;;;;;;;14.25;8.50;;;11.10;94.80;;;;;;4927709;28;20031;-77
2022/10/14 03:41:39;;;;;;;14.02;8.13;;;11.10;94.90;;;;;;4917130;29;20060;-78
2022/10/14 03:44:07;;;;;;;13.02;7.25;;;11.20;94.80;;;;;;4920459;29;20115;-78
2022/10/14 03:46:35;;;;;;;15.93;8.25;;;11.10;94.80;;;;;;4919759;29;20032;-78
2022/10/14 03:49:02;;;;;;;18.27;8.23;;;11.10;94.90;;;;;;4923556;29;20126;-78
2022/10/14 03:51:28;;;;;;;13.25;8.02;;;11.20;94.90;;;;;;4919257;29;20036;-78
2022/10/14 03:54:05;;;;;;;15.60;8.70;;;11.20;95.00;;;;;;4919707;29;20038;-78
2022/10/14 03:56:32;;;;;;;12.82;7.85;;;11.20;94.90;;;;;;4919608;29;20437;-77
2022/10/14 03:58:58;;;;;;;13.35;8.20;;;11.30;95.00;;;;;;4925002;29;20055;-77
2022/10/14 04:01:25;;;;;;;14.90;8.15;;;11.30;95.10;;;;;;4918635;29;20032;-77
2022/10/14 04:04:07;;;;;;;15.65;8.40;;;11.30;95.20;;;;;;4912846;29;20407;-76
2022/10/14 04:06:35;;;;;;;15.50;8.88;;;11.30;95.60;;;;;;4924022;29;20047;-77
2022/10/14 04:09:03;;;;;;;13.45;8.55;;;11.30;95.40;;;;;;4921599;29;20032;-77
2022/10/14 04:11:34;;;;;;;20.13;9.85;;;11.40;95.30;;;;;;4915144;29;20072;-78
2022/10/14 04:14:04;;;;;;;16.20;9.55;;;11.40;95.30;;;;;;4920602;29;20114;-76
2022/10/14 04:16:33;;;;;;;19.35;9.10;;;11.40;95.10;;;;;;4922006;29;20046;-77
2022/10/14 04:19:08;;;;;;;15.65;8.60;;;11.30;95.20;;;;;;4932044;29;20048;-78
2022/10/14 04:21:34;;;;;;;12.95;8.40;;;11.30;95.10;;;;;;4922006;29;20028;-70
2022/10/14 04:24:00;;;;;;;14.80;8.73;;;11.30;95.10;;;;;;4911312;29;20792;-70
2022/10/14 04:26:42;;;;;;;20.17;8.95;;;11.40;95.10;;;;;;4920142;29;20427;-70
2022/10/14 04:29:15;;;;;;;16.45;9.25;;;11.30;95.20;;;;;;4920143;29;20028;-69
2022/10/14 04:31:51;;;;;;;18.00;9.48;;;11.30;95.40;;;;;;4921225;29;20032;-70
2022/10/14 04:34:17;;;;;;;14.10;8.70;;;11.30;95.40;;;;;;4924709;29;20117;-77
2022/10/14 04:36:43;;;;;;;19.05;10.27;;;11.40;95.40;;;;;;4920605;29;20047;-77
2022/10/14 04:39:33;;;;;;;15.43;9.05;;;11.40;95.50;;;;;;4935745;29;20036;-77
2022/10/14 04:41:58;;;;;;;14.70;9.02;;;11.40;95.50;;;;;;4921334;29;20051;-78
2022/10/14 04:44:24;;;;;;;13.23;8.63;;;11.40;95.60;;;;;;4919142;29;20028;-78
2022/10/14 04:46:53;;;;;;;14.75;9.27;;;11.40;95.60;;;;;;4922832;29;20027;-78
2022/10/14 04:49:22;;;;;;;17.73;10.45;;;11.50;95.60;;;;;;4915641;29;20139;-78
2022/10/14 04:51:57;;;;;;;20.65;10.00;;;11.50;95.70;;;;;;4921990;29;20059;-77
2022/10/14 04:54:38;;;;;;;16.45;9.95;;;11.50;95.70;;;;;;4920279;29;20028;-77
2022/10/14 04:57:04;;;;;;;16.92;9.50;;;11.50;95.70;;;;;;4920192;29;20054;-77
2022/10/14 04:59:30;;;;;;;13.27;8.40;;;11.60;95.80;;;;;;4922014;29;20031;-77
2022/10/14 05:02:16;;;;;;;19.08;9.98;;;11.50;95.80;;;;;;4923781;29;20042;-78
2022/10/14 05:04:53;;;;;;;15.90;9.15;;;11.60;95.80;;;;;;4920057;29;20094;-78
2022/10/14 05:07:20;;;;;;;13.32;8.90;;;11.60;95.70;;;;;;4920818;29;20700;-78
2022/10/14 05:09:50;;;;;;;14.38;9.80;;;11.60;95.50;;;;;;4922136;29;20569;-78
2022/10/14 05:12:35;;;;;;;18.20;9.85;;;11.60;95.50;;;;;;4923745;29;20035;-78
2022/10/14 05:15:04;;;;;;;14.20;9.00;;;11.60;95.50;;;;;;4923062;29;20475;-78
2022/10/14 05:17:38;;;;;;;14.65;9.32;;;11.60;95.50;;;;;;4920332;29;20082;-70
2022/10/14 05:20:06;;;;;;;15.43;9.77;;;11.60;95.50;;;;;;4921696;29;20024;-77
2022/10/14 05:22:33;;;;;;;16.13;9.10;;;11.60;95.50;;;;;;4922385;29;20032;-69
2022/10/14 05:24:59;;;;;;;16.38;9.35;;;11.60;95.60;;;;;;4926362;29;20067;-78
2022/10/14 05:27:25;;;;;;;15.48;9.68;;;11.60;95.50;;;;;;4922404;29;20028;-78
2022/10/14 05:29:53;;;;;;;15.40;9.15;;;11.70;95.50;;;;;;4922044;29;20040;-78
2022/10/14 05:32:20;;;;;;;19.85;10.85;;;11.70;95.50;;;;;;4923512;29;20103;-78
2022/10/14 05:34:48;;;;;;;17.50;9.38;;;11.70;95.50;;;;;;4922198;29;20041;-78
2022/10/14 05:37:25;;;;;;;13.82;9.52;;;11.70;95.50;;;;;;4924184;29;20273;-77
2022/10/14 05:39:54;;;;;;;14.35;8.55;;;11.70;95.60;;;;;;4916596;29;20039;-77
2022/10/14 05:42:24;;;;;;;19.70;10.10;;;11.70;95.60;;;;;;4941525;28;20415;-78
2022/10/14 05:44:52;;;;;;;13.07;8.98;;;11.70;95.60;;;;;;4915255;29;20786;-77
2022/10/14 05:47:19;;;;;;;15.38;9.65;;;11.80;95.60;;;;;;4915667;29;20123;-77
2022/10/14 05:49:47;;;;;;;16.92;9.15;;;11.80;95.70;;;;;;4920699;29;20044;-78
2022/10/14 05:52:13;;;;;;;16.02;10.27;;;11.80;95.80;;;;;;4921620;29;20063;-78
2022/10/14 05:54:38;;;;;;;14.82;9.45;;;11.80;95.80;;;;;;4923382;29;20179;-77
2022/10/14 05:57:06;;;;;;;14.77;8.23;;;11.90;95.70;;;;;;4921903;29;20039;-78
2022/10/14 05:59:33;;;;;;;15.60;9.18;;;11.80;95.60;;;;;;4917086;29;20024;-77
2022/10/14 06:02:00;;;;;;;20.08;10.15;;;11.80;95.60;;;;;;4915209;29;20050;-77
2022/10/14 06:04:26;;;;;;;14.95;9.15;;;11.90;95.50;;;;;;4923735;29;20102;-78
2022/10/14 06:06:52;;;;;;;16.48;9.20;;;11.90;95.50;;;;;;4920404;29;20560;-77
2022/10/14 06:09:18;;;;;;;16.73;9.82;;;11.90;95.60;;;;;;4933004;28;20055;-77
2022/10/14 06:11:44;;;;;;;13.95;9.68;;;11.90;95.60;;;;;;4931971;28;20621;-77
2022/10/14 06:14:11;;;;;;;21.77;11.60;;;11.90;95.70;;;;;;4914344;29;20034;-77
2022/10/14 06:16:37;;;;;;;17.13;10.00;;;11.90;95.80;;;;;;4916434;29;20027;-77
2022/10/14 06:19:05;;;;;;;16.85;10.35;;;11.90;95.80;;;;;;4920619;29;20042;-77
2022/10/14 06:21:30;;;;;;;18.88;10.10;;;11.90;95.80;;;;;;4921499;29;20027;-78
2022/10/14 06:23:56;;;;;;;19.23;9.65;;;12.00;95.80;;;;;;4919010;29;20051;-78
2022/10/14 06:26:22;;;;;;;15.00;8.70;;;12.00;96.00;;;;;;4920017;29;20507;-77
2022/10/14 06:28:47;;;;;;;21.00;10.07;;;12.00;95.90;;;;;;4916787;29;20028;-78
2022/10/14 06:31:13;;;;;;;13.45;8.68;;;12.10;95.90;;;;;;4918805;29;20044;-77
2022/10/14 06:33:40;;;;;;;15.23;9.85;;;12.10;95.80;;;;;;4919713;29;20032;-77
2022/10/14 06:36:06;;;;;;;15.23;10.27;;;12.20;95.90;;;;;;4935574;29;20043;-78
2022/10/14 06:38:32;;;;;;;19.27;10.13;;;12.20;95.80;;;;;;4919238;29;20037;-77
2022/10/14 06:40:58;;;;;;;14.52;9.02;;;12.30;95.80;;;;;;4912651;29;20281;-77
2022/10/14 06:43:23;;;;;;;15.30;9.32;;;12.30;95.80;;;;;;4919074;29;20024;-78
2022/10/14 06:45:49;;;;;;;14.90;8.55;;;12.40;95.90;;;;;;4916559;29;20039;-70
2022/10/14 06:48:15;;;;;;;15.77;8.85;;;12.40;95.90;;;;;;4909221;29;20036;-69
2022/10/14 06:50:41;;;;;;;15.98;9.77;;;12.50;96.00;;;;;;4915139;29;20520;-69
2022/10/14 06:53:07;;;;;;;15.38;10.30;;;12.50;95.90;;;;;;4917888;29;20036;-69
2022/10/14 06:55:33;;;;;;;17.52;10.32;;;12.60;95.90;;;;;;4916823;29;20036;-69
2022/10/14 06:57:59;;;;;;;17.00;10.30;;;12.60;95.70;;;;;;4916646;29;20550;-69
2022/10/14 07:00:25;;;;;;;15.00;9.85;;;12.70;95.70;;;;;;4913017;29;20028;-69
2022/10/14 07:02:51;;;;;;;18.10;10.70;;;12.80;95.60;;;;;;4910051;29;20040;-69
2022/10/14 07:05:17;;;;;;;15.00;10.27;;;12.80;95.60;;;;;;4909017;29;20519;-69
2022/10/14 07:07:42;;;;;;;17.45;10.60;;;12.80;95.50;;;;;;4916216;29;20211;-69
2022/10/14 07:10:08;;;;;;;17.85;9.82;;;12.90;95.60;;;;;;4921248;29;20407;-69
2022/10/14 07:12:34;;;;;;;14.13;9.43;;;12.90;95.60;;;;;;4911432;29;20051;-69
2022/10/14 07:15:00;;;;;;;16.65;10.27;;;13.00;95.60;;;;;;4917316;29;20705;-69
2022/10/14 07:17:26;;;;;;;18.67;10.57;;;13.10;95.60;;;;;;4917661;29;20131;-69
2022/10/14 07:19:51;;;;;;;15.07;10.32;;;13.20;95.60;;;;;;4908910;29;20464;-70
2022/10/14 07:22:17;;;;;;;17.88;9.77;;;13.20;95.50;;;;;;4917058;29;20044;-69
2022/10/14 07:24:43;;;;;;;17.52;9.65;;;13.30;95.50;;;;;;4915630;29;20463;-70
2022/10/14 07:27:09;;;;;;;13.00;8.38;;;13.30;95.40;;;;;;4924624;29;20044;-69
2022/10/14 07:29:35;;;;;;;21.77;12.25;;;13.40;95.40;;;;;;4918624;29;20039;-70
2022/10/14 07:32:01;;;;;;;16.05;10.30;;;13.50;95.30;;;;;;4921413;29;20567;-70
2022/10/14 07:34:27;;;;;;;21.02;11.55;;;13.60;95.20;;;;;;4917686;29;20038;-70
2022/10/14 07:36:53;;;;;;;17.35;10.93;;;13.60;95.20;;;;;;4921437;29;20504;-70
2022/10/14 07:39:19;;;;;;;17.88;11.63;;;13.70;95.00;;;;;;4914628;29;20839;-70
2022/10/14 07:41:45;;;;;;;17.70;10.50;;;13.80;94.90;;;;;;4912072;29;20036;-70
2022/10/14 07:44:12;;;;;;;17.77;10.52;;;13.90;94.80;;;;;;4921616;29;20040;-78
2022/10/14 07:46:42;;;;;;;19.30;11.80;;;13.90;94.80;;;;;;4925680;29;20070;-77
2022/10/14 07:49:12;;;;;;;19.55;12.38;;;14.00;94.80;;;;;;4918260;29;20142;-78
2022/10/14 07:51:38;;;;;;;16.08;11.00;;;14.10;94.70;;;;;;4917824;29;20114;-77
2022/10/14 07:54:08;;;;;;;16.20;10.57;;;14.20;94.40;;;;;;4919202;29;20135;-78
2022/10/14 07:56:39;;;;;;;20.17;11.00;;;14.30;94.40;;;;;;4923761;29;20838;-78
2022/10/14 07:59:05;;;;;;;17.60;11.00;;;14.40;94.40;;;;;;4913385;29;20038;-69
2022/10/14 08:01:31;;;;;;;18.63;11.45;;;14.40;94.40;;;;;;4917541;29;20028;-71
2022/10/14 08:03:58;;;;;;;20.95;11.85;;;14.50;94.20;;;;;;4918711;29;20027;-70
2022/10/14 08:06:24;;;;;;;16.92;11.63;;;14.60;94.20;;;;;;4922970;29;20043;-70
2022/10/14 08:08:50;;;;;;;21.27;11.30;;;14.60;94.00;;;;;;4923860;29;20556;-71
2022/10/14 08:11:22;;;;;;;20.15;12.02;;;14.60;94.30;;;;;;4921427;29;20571;-69
2022/10/14 08:13:49;;;;;;;22.50;12.85;;;14.70;94.10;;;;;;4919599;29;20084;-68
2022/10/14 08:16:20;;;;;;;18.40;12.18;;;14.70;94.10;;;;;;4899914;29;20083;-68
2022/10/14 08:18:46;;;;;;;19.02;12.38;;;14.80;94.00;;;;;;4915546;29;20189;-69
2022/10/14 08:21:13;;;;;;;18.38;11.13;;;14.80;93.90;;;;;;4914870;29;20059;-70
2022/10/14 08:23:39;;;;;;;15.43;10.98;;;14.90;93.90;;;;;;4906769;29;20647;-73
2022/10/14 08:26:28;;;;;;;20.35;11.45;;;15.00;93.90;;;;;;4916399;29;20039;-70
2022/10/14 08:28:55;;;;;;;19.63;12.45;;;15.10;93.70;;;;;;4921666;29;20028;-75
2022/10/14 08:31:21;;;;;;;23.55;12.73;;;15.20;93.40;;;;;;4921712;29;20662;-71
2022/10/14 08:33:46;;;;;;;23.10;12.95;;;15.30;93.30;;;;;;4913982;29;20066;-71
2022/10/14 08:36:13;;;;;;;21.95;12.65;;;15.40;93.00;;;;;;4930298;29;20469;-70
2022/10/14 08:38:39;;;;;;;24.40;11.88;;;15.50;92.80;;;;;;4910816;29;20043;-70
2022/10/14 08:41:08;;;;;;;15.45;11.02;;;15.50;92.60;;;;;;4914121;29;20040;-70
2022/10/14 08:43:52;;;;;;;25.92;14.95;;;15.50;92.60;;;;;;4912770;29;20123;-70
2022/10/14 08:46:38;;;;;;;22.13;12.15;;;15.60;92.50;;;;;;4919180;29;20452;-70
2022/10/14 08:49:17;;;;;;;24.95;12.05;;;15.60;92.50;;;;;;4917927;29;20090;-70
2022/10/14 08:51:47;;;;;;;16.88;9.93;;;15.70;92.50;;;;;;4919808;29;20082;-80
2022/10/14 08:54:24;;;;;;;17.27;10.73;;;15.70;92.50;;;;;;4916468;29;20039;-68
2022/10/14 08:56:50;;;;;;;16.80;10.93;;;15.90;92.40;;;;;;4919622;29;20032;-70
2022/10/14 08:59:19;;;;;;;19.88;11.40;;;16.00;92.10;;;;;;4910888;29;20023;-70
2022/10/14 09:02:09;;;;;;;20.00;11.93;;;16.10;91.80;;;;;;4916796;29;20063;-70
2022/10/14 09:04:35;;;;;;;19.15;12.55;;;16.30;91.90;;;;;;4919274;29;20036;-70
2022/10/14 09:07:02;;;;;;;30.23;18.20;;;16.40;91.40;;;;;;4915886;29;20081;-70
2022/10/14 09:09:38;;;;;;;23.00;12.88;;;16.50;91.40;;;;;;4916016;29;20809;-70
2022/10/14 09:12:16;;;;;;;23.63;12.93;;;16.70;90.80;;;;;;4916312;29;20043;-70
2022/10/14 09:14:47;;;;;;;23.25;13.20;;;16.80;90.70;;;;;;4910248;29;20782;-70
2022/10/14 09:17:18;;;;;;;19.35;12.18;;;16.80;90.40;;;;;;4914951;29;20379;-77
2022/10/14 09:19:54;;;;;;;22.60;11.70;;;16.90;89.90;;;;;;4915217;29;20488;-79
2022/10/14 09:22:20;;;;;;;18.90;11.68;;;16.80;89.70;;;;;;4915931;29;20032;-71
2022/10/14 09:24:47;;;;;;;18.60;10.75;;;16.90;89.90;;;;;;4910561;29;21005;-72
2022/10/14 09:27:16;;;;;;;23.80;11.77;;;16.90;90.10;;;;;;4910858;29;20040;-79
2022/10/14 09:29:59;;;;;;;16.75;11.10;;;16.90;89.70;;;;;;4918103;29;20168;-80
2022/10/14 09:32:30;;;;;;;18.63;11.80;;;17.00;89.50;;;;;;4909841;29;20050;-78
2022/10/14 09:34:57;;;;;;;18.27;10.85;;;17.00;88.80;;;;;;4913255;29;20095;-78
2022/10/14 09:37:35;;;;;;;20.40;11.40;;;17.00;89.10;;;;;;4918740;29;20035;-79
2022/10/14 09:40:13;;;;;;;19.00;11.48;;;17.00;88.70;;;;;;4915779;29;20038;-79
2022/10/14 09:43:08;;;;;;;18.15;10.35;;;17.10;89.40;;;;;;4913356;29;20480;-79
2022/10/14 09:45:59;;;;;;;22.40;12.07;;;17.10;88.90;;;;;;4912483;29;20039;-79
2022/10/14 09:48:57;;;;;;;17.35;11.02;;;17.30;89.30;;;;;;4918050;29;20038;-79
2022/10/14 09:51:30;;;;;;;18.35;10.82;;;17.60;88.40;;;;;;4909153;29;20090;-79
2022/10/14 09:53:58;;;;;;;17.05;9.70;;;17.90;86.90;;;;;;4915643;29;20139;-79
2022/10/14 09:56:41;;;;;;;15.90;9.90;;;18.20;86.50;;;;;;4914965;29;20020;-79
2022/10/14 09:59:17;;;;;;;17.05;9.57;;;18.50;83.60;;;;;;4917306;29;20032;-78
2022/10/14 10:01:59;;;;;;;18.45;10.73;;;18.70;83.20;;;;;;4911324;29;20046;-79
2022/10/14 10:04:32;;;;;;;16.23;9.95;;;18.90;83.00;;;;;;4914261;29;20098;-79
2022/10/14 10:07:00;;;;;;;19.17;9.43;;;20.30;77.40;;;;;;4921917;29;20036;-79
2022/10/14 10:09:26;;;;;;;22.27;9.25;;;21.00;73.80;;;;;;4916063;29;20143;-79
2022/10/14 10:11:52;;;;;;;12.38;8.90;;;21.20;72.50;;;;;;4918220;29;20085;-78
2022/10/14 10:14:33;;;;;;;12.80;8.60;;;20.90;72.80;;;;;;4917168;29;20135;-78
2022/10/14 10:17:11;;;;;;;15.70;8.80;;;20.30;74.30;;;;;;4912874;29;20032;-78
2022/10/14 10:19:42;;;;;;;15.88;9.13;;;20.00;76.50;;;;;;4921971;29;20050;-78
2022/10/14 10:22:25;;;;;;;14.38;9.20;;;19.80;76.20;;;;;;4918842;29;20035;-78
2022/10/14 10:24:58;;;;;;;14.98;9.15;;;19.50;77.00;;;;;;4915849;29;20043;-78
2022/10/14 10:27:27;;;;;;;12.23;8.52;;;19.50;78.00;;;;;;4917007;29;20059;-78
2022/10/14 10:29:56;;;;;;;18.27;8.55;;;19.50;77.20;;;;;;4913825;29;20042;-79
2022/10/14 10:32:37;;;;;;;12.23;7.70;;;19.90;76.80;;;;;;4914101;29;20391;-79
2022/10/14 10:35:42;;;;;;;14.80;8.57;;;21.20;73.10;;;;;;4914801;29;20094;-79
2022/10/14 10:38:31;;;;;;;17.48;9.68;;;22.80;67.00;;;;;;4917786;29;20061;-79
2022/10/14 10:41:08;;;;;;;15.50;8.48;;;23.80;63.90;;;;;;4915717;29;20560;-79
2022/10/14 10:43:48;;;;;;;15.57;8.68;;;24.40;61.20;;;;;;4919534;29;20036;-78
2022/10/14 10:46:20;;;;;;;12.00;7.47;;;24.50;58.90;;;;;;4914980;29;20062;-80
2022/10/14 10:48:55;;;;;;;13.00;8.95;;;24.00;61.10;;;;;;4914228;29;20044;-77
2022/10/14 10:51:33;;;;;;;11.20;7.93;;;24.40;59.20;;;;;;4913494;29;20035;-72
2022/10/14 10:54:08;;;;;;;15.35;7.53;;;24.50;57.50;;;;;;4917556;29;20047;-78
2022/10/14 10:56:41;;;;;;;12.43;7.57;;;24.50;57.10;;;;;;4913824;29;20024;-75
2022/10/14 10:59:35;;;;;;;14.32;7.30;;;24.40;57.50;;;;;;4919336;29;20046;-75
2022/10/14 11:02:16;;;;;;;11.40;7.25;;;23.20;59.80;;;;;;4914256;29;20083;-75
2022/10/14 11:04:52;;;;;;;12.70;7.60;;;22.10;63.30;;;;;;4909434;29;20036;-75
2022/10/14 11:13:34;;;;;;;12.30;7.97;;;20.90;69.20;;;;;;4916467;29;20027;-73
2022/10/14 11:16:13;;;;;;;12.05;7.10;;;20.60;69.40;;;;;;4913189;29;20048;-73
2022/10/14 11:18:47;;;;;;;11.82;6.85;;;20.50;70.20;;;;;;4909878;29;20040;-73
2022/10/14 11:21:32;;;;;;;10.75;6.00;;;20.40;70.00;;;;;;4911075;29;20043;-74
2022/10/14 11:24:01;;;;;;;10.60;6.93;;;20.20;71.00;;;;;;4913709;29;20036;-74
2022/10/14 11:27:16;;;;;;;9.65;6.72;;;20.10;72.10;;;;;;4910771;29;20087;-74
2022/10/14 11:30:04;;;;;;;11.65;6.82;;;20.00;71.50;;;;;;4917581;29;20035;-72
2022/10/14 11:32:39;;;;;;;8.02;5.43;;;19.80;72.40;;;;;;4912642;29;20122;-73
2022/10/14 11:35:33;;;;;;;12.23;5.23;;;19.60;73.70;;;;;;4915662;29;20091;-73
2022/10/14 11:38:29;;;;;;;12.40;5.97;;;19.60;73.50;;;;;;4923886;29;20271;-73
2022/10/14 11:41:20;;;;;;;10.65;6.38;;;19.50;73.70;;;;;;4918149;29;20032;-73
2022/10/14 11:43:59;;;;;;;11.77;6.65;;;19.50;73.40;;;;;;4915737;29;20046;-73
2022/10/14 11:46:35;;;;;;;10.38;8.00;;;19.40;74.60;;;;;;4914871;29;20554;-74
2022/10/14 11:49:12;;;;;;;11.27;7.03;;;19.40;74.80;;;;;;4923449;29;20039;-74
2022/10/14 11:51:37;;;;;;;12.70;7.30;;;19.40;74.40;;;;;;4918761;29;20063;-65
2022/10/14 11:54:17;;;;;;;16.25;7.75;;;19.40;74.70;;;;;;4915984;29;20147;-68
2022/10/14 11:57:11;;;;;;;11.68;6.45;;;19.40;75.10;;;;;;4911902;29;20028;-70
2022/10/14 11:59:58;;;;;;;9.20;6.22;;;19.50;75.20;;;;;;4917426;29;20036;-70
2022/10/14 12:02:43;;;;;;;9.27;5.50;;;19.40;74.30;;;;;;4910457;29;20167;-69
2022/10/14 12:05:33;;;;;;;8.50;5.57;;;19.50;73.60;;;;;;4912540;29;20559;-74
2022/10/14 12:08:08;;;;;;;8.98;5.50;;;19.40;74.70;;;;;;4921125;29;20039;-75
2022/10/14 12:10:49;;;;;;;8.23;5.27;;;19.40;74.80;;;;;;4920153;29;20036;-74
2022/10/14 12:13:23;;;;;;;8.63;5.35;;;19.30;75.80;;;;;;4921213;29;20063;-73
2022/10/14 12:15:51;;;;;;;14.20;5.47;;;19.40;76.20;;;;;;4921333;29;20040;-74
2022/10/14 12:18:20;;;;;;;8.30;5.18;;;19.40;75.60;;;;;;4919698;29;20099;-74
2022/10/14 12:20:58;;;;;;;16.88;8.20;;;19.50;75.30;;;;;;4914133;29;20032;-73
2022/10/14 12:24:07;;;;;;;8.27;5.65;;;19.40;74.80;;;;;;4912874;29;20036;-73
2022/10/14 12:26:45;;;;;;;12.60;8.52;;;19.30;75.20;;;;;;4915189;29;20389;-74
2022/10/14 12:29:19;;;;;;;17.95;9.95;;;19.20;75.20;;;;;;4916159;29;20683;-73
2022/10/14 12:32:06;;;;;;;14.88;6.40;;;19.10;75.70;;;;;;4921533;29;20035;-73
2022/10/14 12:34:35;;;;;;;13.65;8.43;;;19.20;74.70;;;;;;4916443;29;20036;-73
2022/10/14 12:37:23;;;;;;;11.30;7.15;;;19.20;75.10;;;;;;4917584;29;20036;-69
2022/10/14 12:39:54;;;;;;;15.88;7.85;;;19.30;74.90;;;;;;4926172;29;20982;-68
2022/10/14 12:42:20;;;;;;;15.15;8.93;;;19.30;74.30;;;;;;4914616;29;20055;-69
2022/10/14 12:44:55;;;;;;;13.00;6.10;;;19.20;74.90;;;;;;4915113;29;20524;-68
2022/10/14 12:47:29;;;;;;;7.90;5.53;;;19.40;74.40;;;;;;4916903;29;20028;-69
2022/10/14 12:49:58;;;;;;;6.50;5.00;;;19.50;74.70;;;;;;4919782;29;20090;-68
2022/10/14 12:52:30;;;;;;;7.93;5.40;;;19.40;74.40;;;;;;4922157;29;20110;-73
2022/10/14 12:54:58;;;;;;;7.88;5.85;;;19.20;76.00;;;;;;4914261;29;20142;-75
2022/10/14 12:57:32;;;;;;;17.30;9.57;;;19.20;75.30;;;;;;4915798;29;20048;-74
2022/10/14 13:00:00;;;;;;;6.45;4.90;;;19.20;75.30;;;;;;4914141;29;20048;-72
2022/10/14 13:02:42;;;;;;;10.30;6.50;;;19.30;75.30;;;;;;4911600;29;20099;-70
2022/10/14 13:05:23;;;;;;;8.30;5.68;;;19.40;74.90;;;;;;4915469;29;20036;-69
2022/10/14 13:08:09;;;;;;;6.93;5.00;;;19.50;74.30;;;;;;4919187;29;20115;-72